createdAt,value
2018-06-08T00:01:06.160Z,90.90
2018-06-08T00:03:35.198Z,91.00
2018-06-08T00:06:04.604Z,91.10
2018-06-08T00:08:34.256Z,91.10
2018-06-08T00:13:31.786Z,91.20
2018-06-08T00:16:00.761Z,91.20
2018-06-08T00:18:29.728Z,91.20
2018-06-08T00:20:58.691Z,91.10
2018-06-08T00:23:27.593Z,91.20
2018-06-08T00:25:56.619Z,91.20
2018-06-08T00:28:25.600Z,90.90
2018-06-08T00:30:54.739Z,91.30
2018-06-08T00:33:23.848Z,91.20
2018-06-08T00:35:52.788Z,91.40
2018-06-08T00:38:21.764Z,91.80
2018-06-08T00:43:19.336Z,91.90
2018-06-08T00:45:48.315Z,91.80
2018-06-08T00:48:17.264Z,91.60
2018-06-08T00:50:46.211Z,91.70
2018-06-08T00:53:15.424Z,91.50
2018-06-08T00:55:44.448Z,91.40
2018-06-08T00:58:13.507Z,91.30
2018-06-08T01:00:42.509Z,91.10
2018-06-08T01:03:11.487Z,91.00
2018-06-08T01:05:40.472Z,90.80
2018-06-08T01:08:09.452Z,90.90
2018-06-08T01:10:38.417Z,90.90
2018-06-08T01:13:07.569Z,91.20
2018-06-08T01:18:05.172Z,91.30
2018-06-08T01:20:34.124Z,91.10
2018-06-08T01:23:03.188Z,90.90
2018-06-08T01:25:32.232Z,90.80
2018-06-08T01:28:01.225Z,90.80
2018-06-08T01:32:58.913Z,90.40
2018-06-08T01:35:27.931Z,90.40
2018-06-08T01:37:56.976Z,90.30
2018-06-08T01:40:25.964Z,90.40
2018-06-08T01:42:55.008Z,90.80
2018-06-08T01:45:24.032Z,90.60
2018-06-08T01:47:53.029Z,90.70
2018-06-08T01:50:22.381Z,90.70
2018-06-08T01:52:51.474Z,90.40
2018-06-08T01:55:20.532Z,90.50
2018-06-08T01:57:49.620Z,90.50
2018-06-08T02:09:13.851Z,90.30
2018-06-08T02:11:44.043Z,90.70
2018-06-08T02:14:13.067Z,90.60
2018-06-08T02:16:42.141Z,90.50
2018-06-08T02:19:11.165Z,90.60
2018-06-08T02:21:40.148Z,90.60
2018-06-08T02:24:09.244Z,90.60
2018-06-08T02:26:38.296Z,90.40
2018-06-08T02:29:07.326Z,90.30
2018-06-08T02:31:36.309Z,90.20
2018-06-08T02:34:05.313Z,90.50
2018-06-08T02:36:34.298Z,90.60
2018-06-08T02:39:03.508Z,90.50
2018-06-08T02:41:32.499Z,90.50
2018-06-08T02:44:01.877Z,90.50
2018-06-08T02:46:30.908Z,90.50
2018-06-08T02:51:28.597Z,90.70
2018-06-08T02:53:57.556Z,90.80
2018-06-08T02:56:26.584Z,90.60
2018-06-08T02:58:55.649Z,90.20
2018-06-08T03:01:24.684Z,90.00
2018-06-08T03:03:53.657Z,90.20
2018-06-08T03:08:51.349Z,90.10
2018-06-08T03:11:20.353Z,90.10
2018-06-08T03:13:49.408Z,90.10
2018-06-08T03:16:18.676Z,90.10
2018-06-08T03:18:47.710Z,90.30
2018-06-08T03:21:16.733Z,90.50
2018-06-08T03:23:45.696Z,90.70
2018-06-08T03:26:14.719Z,90.70
2018-06-08T03:28:43.674Z,90.70
2018-06-08T03:31:12.661Z,90.60
2018-06-08T03:33:41.562Z,92.80
2018-06-08T03:36:10.472Z,90.50
2018-06-08T03:38:39.387Z,90.30
2018-06-08T03:41:08.351Z,90.30
2018-06-08T03:43:37.372Z,90.60
2018-06-08T03:46:06.304Z,90.60
2018-06-08T03:48:35.224Z,90.40
2018-06-08T03:51:04.100Z,90.60
2018-06-08T03:53:33.971Z,90.60
2018-06-08T03:56:02.885Z,90.60
2018-06-08T03:58:31.797Z,90.60
2018-06-08T04:01:00.700Z,90.70
2018-06-08T04:03:29.559Z,90.80
2018-06-08T04:05:58.469Z,90.80
2018-06-08T04:08:27.339Z,91.00
2018-06-08T04:10:56.220Z,91.00
2018-06-08T04:13:25.064Z,91.20
2018-06-08T04:15:53.948Z,91.20
2018-06-08T04:18:22.773Z,91.10
2018-06-08T04:20:51.687Z,91.00
2018-06-08T04:23:20.552Z,91.00
2018-06-08T04:25:49.472Z,91.00
2018-06-08T04:28:18.299Z,90.90
2018-06-08T04:30:47.204Z,91.00
2018-06-08T04:33:16.076Z,90.90
2018-06-08T04:35:44.960Z,91.00
2018-06-08T04:38:13.845Z,91.10
2018-06-08T04:40:42.692Z,91.20
2018-06-08T04:43:11.581Z,91.20
2018-06-08T04:45:40.443Z,91.30
2018-06-08T04:48:09.363Z,91.30
2018-06-08T04:53:06.677Z,91.30
2018-06-08T04:55:35.540Z,91.20
2018-06-08T04:58:04.462Z,91.40
2018-06-08T05:03:01.816Z,91.80
2018-06-08T05:05:30.719Z,91.80
2018-06-08T05:07:59.587Z,91.70
2018-06-08T05:10:28.513Z,91.70
2018-06-08T05:15:25.880Z,92.10
2018-06-08T05:20:23.248Z,91.80
2018-06-08T05:22:52.155Z,91.90
2018-06-08T05:25:21.036Z,92.00
2018-06-08T05:27:49.903Z,92.00
2018-06-08T05:30:21.280Z,91.90
2018-06-08T05:32:50.200Z,91.90
2018-06-08T05:35:19.088Z,92.20
2018-06-08T05:37:47.991Z,92.40
2018-06-08T05:42:45.340Z,91.80
2018-06-08T05:45:14.313Z,91.60
2018-06-08T05:47:43.204Z,92.00
2018-06-08T05:50:12.601Z,92.40
2018-06-08T05:52:41.500Z,91.80
2018-06-08T05:57:38.908Z,92.40
2018-06-08T06:00:07.857Z,92.00
2018-06-08T06:02:36.786Z,91.70
2018-06-08T06:05:05.652Z,91.60
2018-06-08T06:07:34.518Z,91.30
2018-06-08T06:10:03.414Z,90.90
2018-06-08T06:12:32.320Z,90.70
2018-06-08T06:15:01.228Z,91.10
2018-06-08T06:17:30.132Z,91.30
2018-06-08T06:19:59.004Z,91.20
2018-06-08T06:22:27.882Z,91.30
2018-06-08T06:24:56.768Z,91.10
2018-06-08T06:27:25.604Z,91.20
2018-06-08T06:29:54.492Z,91.00
2018-06-08T06:32:23.407Z,91.10
2018-06-08T06:34:52.348Z,91.00
2018-06-08T06:37:21.180Z,90.70
2018-06-08T06:39:50.077Z,90.10
2018-06-08T06:42:18.990Z,90.00
2018-06-08T06:44:47.927Z,89.90
2018-06-08T06:49:45.287Z,86.90
2018-06-08T06:52:14.184Z,87.30
2018-06-08T06:54:44.036Z,89.50
2018-06-08T06:57:12.980Z,90.30
2018-06-08T06:59:41.812Z,89.80
2018-06-08T07:02:10.700Z,90.20
2018-06-08T07:04:39.572Z,90.50
2018-06-08T07:07:08.521Z,90.20
2018-06-08T07:09:37.379Z,90.50
2018-06-08T07:12:06.288Z,90.40
2018-06-08T07:14:35.139Z,90.40
2018-06-08T07:17:04.020Z,90.40
2018-06-08T07:19:32.981Z,90.20
2018-06-08T07:22:01.896Z,90.20
2018-06-08T07:24:30.849Z,89.60
2018-06-08T07:26:59.748Z,89.80
2018-06-08T07:29:28.644Z,89.70
2018-06-08T07:31:57.572Z,89.30
2018-06-08T07:34:26.449Z,88.20
2018-06-08T07:36:55.364Z,88.50
2018-06-08T07:39:24.249Z,87.60
2018-06-08T07:41:53.116Z,87.40
2018-06-08T07:44:22.044Z,87.70
2018-06-08T07:46:51.072Z,87.40
2018-06-08T07:49:19.896Z,87.10
2018-06-08T07:51:48.861Z,86.20
2018-06-08T07:54:17.717Z,85.40
2018-06-08T07:59:15.176Z,86.00
2018-06-08T08:01:44.155Z,83.40
2018-06-08T08:04:13.078Z,83.70
2018-06-08T08:06:41.974Z,83.10
2018-06-08T08:09:10.941Z,82.80
2018-06-08T08:11:39.844Z,83.20
2018-06-08T08:16:37.274Z,82.70
2018-06-08T08:19:06.160Z,84.10
2018-06-08T08:21:35.048Z,81.60
2018-06-08T08:26:32.424Z,81.00
2018-06-08T08:29:01.293Z,78.50
2018-06-08T08:31:30.175Z,78.70
2018-06-08T08:33:59.173Z,78.90
2018-06-08T08:36:28.612Z,78.80
2018-06-08T08:38:57.564Z,77.80
2018-06-08T08:41:26.453Z,77.90
2018-06-08T08:43:55.369Z,78.50
2018-06-08T08:46:24.239Z,77.90
2018-06-08T08:48:53.737Z,77.90
2018-06-08T08:51:22.687Z,76.80
2018-06-08T08:53:51.666Z,77.10
2018-06-08T08:56:20.573Z,76.60
2018-06-08T08:58:49.485Z,76.10
2018-06-08T09:01:18.344Z,76.00
2018-06-08T09:03:47.402Z,74.80
2018-06-08T09:06:16.260Z,74.80
2018-06-08T09:08:45.182Z,74.20
2018-06-08T09:11:14.152Z,72.50
2018-06-08T09:13:42.996Z,71.70
2018-06-08T09:16:11.901Z,71.60
2018-06-08T09:18:40.820Z,70.80
2018-06-08T09:21:09.748Z,70.50
2018-06-08T09:23:38.690Z,70.40
2018-06-08T09:26:07.544Z,70.20
2018-06-08T09:28:36.471Z,71.00
2018-06-08T09:31:05.351Z,70.90
2018-06-08T09:33:34.287Z,69.10
2018-06-08T09:36:03.144Z,69.80
2018-06-08T09:38:32.032Z,68.50
2018-06-08T09:41:00.934Z,68.40
2018-06-08T09:45:58.355Z,66.90
2018-06-08T09:48:27.269Z,66.30
2018-06-08T09:50:56.121Z,66.60
2018-06-08T09:53:25.000Z,65.90
2018-06-08T09:55:54.102Z,65.00
2018-06-08T09:58:23.004Z,63.90
2018-06-08T10:00:51.912Z,64.20
2018-06-08T10:03:20.777Z,62.60
2018-06-08T10:05:49.670Z,65.20
2018-06-08T10:08:18.500Z,62.60
2018-06-08T10:13:15.826Z,62.40
2018-06-08T10:15:44.720Z,61.30
2018-06-08T10:18:13.607Z,60.70
2018-06-08T10:20:42.520Z,60.30
2018-06-08T10:23:11.388Z,60.60
2018-06-08T10:25:40.328Z,60.10
2018-06-08T10:28:09.165Z,59.60
2018-06-08T10:30:38.055Z,58.80
2018-06-08T10:33:06.963Z,59.40
2018-06-08T10:35:35.806Z,58.00
2018-06-08T10:38:04.712Z,59.20
2018-06-08T10:40:33.586Z,58.20
2018-06-08T10:43:02.504Z,57.50
2018-06-08T10:45:31.336Z,57.60
2018-06-08T10:48:00.262Z,57.20
2018-06-08T10:50:29.265Z,57.50
2018-06-08T10:52:58.111Z,57.00
2018-06-08T10:55:27.012Z,56.40
2018-06-08T10:57:55.880Z,55.80
2018-06-08T11:05:21.756Z,54.80
2018-06-08T11:07:50.626Z,54.20
2018-06-08T11:10:19.520Z,53.20
2018-06-08T11:12:48.460Z,53.00
2018-06-08T11:15:17.320Z,51.90
2018-06-08T11:17:46.276Z,51.00
2018-06-08T11:20:15.121Z,50.50
2018-06-08T11:22:44.042Z,49.30
2018-06-08T11:25:13.850Z,48.70
2018-06-08T11:27:42.764Z,49.10
2018-06-08T11:30:11.661Z,48.00
2018-06-08T11:32:40.560Z,46.30
2018-06-08T11:35:09.452Z,48.10
2018-06-08T11:37:38.401Z,48.70
2018-06-08T11:40:07.269Z,47.90
2018-06-08T11:42:36.152Z,48.30
2018-06-08T11:45:05.085Z,48.60
2018-06-08T11:47:34.015Z,49.40
2018-06-08T11:50:02.917Z,49.40
2018-06-08T11:52:31.928Z,47.60
2018-06-08T11:55:00.829Z,47.70
2018-06-08T11:57:29.724Z,46.90
2018-06-08T11:59:58.640Z,46.50
2018-06-08T12:02:27.527Z,46.30
2018-06-08T12:07:24.973Z,48.10
2018-06-08T12:09:54.484Z,48.40
2018-06-08T12:12:23.405Z,46.40
2018-06-08T12:14:52.319Z,47.20
2018-06-08T12:17:21.280Z,48.60
2018-06-08T12:19:50.265Z,48.10
2018-06-08T12:27:16.089Z,47.50
2018-06-08T12:29:45.036Z,47.50
2018-06-08T12:32:13.928Z,47.40
2018-06-08T12:34:42.852Z,48.60
2018-06-08T12:37:11.756Z,48.90
2018-06-08T12:39:40.660Z,47.60
2018-06-08T12:42:09.609Z,47.50
2018-06-08T12:44:38.532Z,49.30
2018-06-08T12:47:07.476Z,48.80
2018-06-08T12:49:36.336Z,48.70
2018-06-08T12:54:33.697Z,48.90
2018-06-08T12:59:31.064Z,49.80
2018-06-08T13:01:59.980Z,50.40
2018-06-08T13:04:28.916Z,50.10
2018-06-08T13:06:57.796Z,50.40
2018-06-08T13:09:26.838Z,49.90
2018-06-08T13:11:55.745Z,49.90
2018-06-08T13:14:24.632Z,50.60
2018-06-08T13:16:53.530Z,50.90
2018-06-08T13:19:22.464Z,49.60
2018-06-08T13:21:51.416Z,48.80
2018-06-08T13:24:20.351Z,49.10
2018-06-08T13:26:49.216Z,49.20
2018-06-08T13:29:18.153Z,47.40
2018-06-08T13:31:47.037Z,47.80
2018-06-08T13:34:15.992Z,47.00
2018-06-08T13:36:44.876Z,45.90
2018-06-08T13:39:13.856Z,44.90
2018-06-08T13:41:42.748Z,45.40
2018-06-08T13:44:11.620Z,44.90
2018-06-08T13:46:44.492Z,45.40
2018-06-08T13:49:13.509Z,46.10
2018-06-08T13:51:42.427Z,46.20
2018-06-08T13:54:11.391Z,45.40
2018-06-08T13:56:40.502Z,45.00
2018-06-08T13:59:09.440Z,45.10
2018-06-08T14:01:38.317Z,44.50
2018-06-08T14:04:07.365Z,44.70
2018-06-08T14:06:36.544Z,45.20
2018-06-08T14:09:06.800Z,45.30
2018-06-08T14:11:35.848Z,45.10
2018-06-08T14:14:04.750Z,46.30
2018-06-08T14:16:33.673Z,46.50
2018-06-08T14:19:02.695Z,47.80
2018-06-08T14:21:31.645Z,47.50
2018-06-08T14:24:00.548Z,47.80
2018-06-08T14:26:29.468Z,48.60
2018-06-08T14:28:58.360Z,48.90
2018-06-08T14:31:27.276Z,49.10
2018-06-08T14:33:56.233Z,49.30
2018-06-08T14:36:29.024Z,49.90
2018-06-08T14:38:59.921Z,50.70
2018-06-08T14:41:28.888Z,51.60
2018-06-08T14:43:57.852Z,52.20
2018-06-08T14:46:27.332Z,52.40
2018-06-08T14:48:56.196Z,52.50
2018-06-08T14:53:59.932Z,53.70
2018-06-08T14:56:28.872Z,53.50
2018-06-08T14:58:58.307Z,54.20
2018-06-08T15:01:27.216Z,54.60
2018-06-08T15:03:56.176Z,55.20
2018-06-08T15:06:25.107Z,55.20
2018-06-08T15:08:54.084Z,55.60
2018-06-08T15:11:23.031Z,55.70
2018-06-08T15:13:52.549Z,56.30
2018-06-08T15:16:21.693Z,57.10
2018-06-08T15:21:20.316Z,58.70
2018-06-08T15:23:49.181Z,53.40
2018-06-08T15:26:18.104Z,53.10
2018-06-08T15:28:48.004Z,54.60
2018-06-08T15:31:16.864Z,57.60
2018-06-08T15:33:46.116Z,57.80
2018-06-08T15:36:15.061Z,59.00
2018-06-08T15:38:43.972Z,59.20
2018-06-08T15:41:13.977Z,62.10
2018-06-08T15:43:42.854Z,61.20
2018-06-08T15:46:11.785Z,66.00
2018-06-08T15:48:40.618Z,65.40
2018-06-08T15:51:09.553Z,65.20
2018-06-08T15:53:38.502Z,67.00
2018-06-08T15:56:07.409Z,67.20
2018-06-08T15:58:37.248Z,66.20
2018-06-08T16:01:06.161Z,66.30
2018-06-08T16:03:35.064Z,66.40
2018-06-08T16:06:04.012Z,65.70
2018-06-08T16:08:33.620Z,65.90
2018-06-08T16:11:02.623Z,65.00
2018-06-08T16:13:31.576Z,66.20
2018-06-08T16:18:28.992Z,63.40
2018-06-08T16:20:57.887Z,65.40
2018-06-08T16:23:26.762Z,67.60
2018-06-08T16:25:57.482Z,66.80
2018-06-08T16:28:26.863Z,62.00
2018-06-08T16:30:55.859Z,64.60
2018-06-08T16:35:53.148Z,66.20
2018-06-08T16:38:22.053Z,66.60
2018-06-08T16:40:50.876Z,68.50
2018-06-08T16:43:19.816Z,68.30
2018-06-08T16:45:48.662Z,69.70
2018-06-08T16:48:18.260Z,70.60
2018-06-08T16:50:47.272Z,71.60
2018-06-08T16:53:16.232Z,74.60
2018-06-08T16:55:45.123Z,75.20
2018-06-08T16:58:14.002Z,75.80
2018-06-08T17:00:45.121Z,76.10
2018-06-08T17:03:14.661Z,78.40
2018-06-08T17:05:44.043Z,80.90
2018-06-08T17:08:13.038Z,81.80
2018-06-08T17:10:42.551Z,80.70
2018-06-08T17:13:11.479Z,81.20
2018-06-08T17:15:40.398Z,82.00
2018-06-08T17:18:09.269Z,83.10
2018-06-08T17:23:06.736Z,81.30
2018-06-08T17:28:04.360Z,82.20
2018-06-08T17:30:35.834Z,80.60
2018-06-08T17:33:06.719Z,81.40
2018-06-08T17:35:36.524Z,83.80
2018-06-08T17:38:06.235Z,84.30
2018-06-08T17:40:35.644Z,82.70
2018-06-08T17:43:04.589Z,83.20
2018-06-08T17:48:19.179Z,86.10
2018-06-08T17:50:51.728Z,84.90
2018-06-08T17:53:24.669Z,84.70
2018-06-08T17:55:54.171Z,83.00
2018-06-08T17:58:23.148Z,83.60
2018-06-08T18:00:52.404Z,85.20
2018-06-08T18:03:26.984Z,86.20
2018-06-08T18:05:55.915Z,86.10
2018-06-08T18:08:29.188Z,86.20
2018-06-08T18:11:02.736Z,85.60
2018-06-08T18:13:32.607Z,86.10
2018-06-08T18:16:05.936Z,87.20
2018-06-08T18:18:37.708Z,87.50
2018-06-08T18:21:11.134Z,88.30
2018-06-08T18:23:40.232Z,89.20
2018-06-08T18:26:09.404Z,89.70
2018-06-08T18:28:39.291Z,89.50
2018-06-08T18:31:08.332Z,89.10
2018-06-08T18:33:43.426Z,89.20
2018-06-08T18:36:13.477Z,89.80
2018-06-08T18:38:43.783Z,90.40
2018-06-08T18:41:15.524Z,90.80
2018-06-08T18:43:44.940Z,91.20
2018-06-08T18:46:13.773Z,91.20
2018-06-08T18:48:48.677Z,91.20
2018-06-08T18:51:17.792Z,91.30
2018-06-08T18:53:47.215Z,90.80
2018-06-08T18:58:47.823Z,90.40
2018-06-08T19:01:17.363Z,90.80
2018-06-08T19:03:46.380Z,90.50
2018-06-08T19:06:16.650Z,90.00
2018-06-08T19:08:45.701Z,90.30
2018-06-08T19:11:17.949Z,90.10
2018-06-08T19:13:46.866Z,89.40
2018-06-08T19:16:15.798Z,89.40
2018-06-08T19:18:44.797Z,89.00
2018-06-08T19:21:23.968Z,89.50
2018-06-08T19:23:53.061Z,89.10
2018-06-08T19:26:23.612Z,89.40
2018-06-08T19:28:52.528Z,89.60
2018-06-08T19:31:21.548Z,89.80
2018-06-08T19:33:50.411Z,89.90
2018-06-08T19:36:23.655Z,89.50
2018-06-08T19:38:53.172Z,89.70
2018-06-08T19:46:21.096Z,90.50
2018-06-08T19:48:56.460Z,90.60
2018-06-08T19:51:25.321Z,90.60
2018-06-08T19:53:55.202Z,90.80
2018-06-08T20:04:02.209Z,91.30
2018-06-08T20:06:35.660Z,91.20
2018-06-08T20:09:06.649Z,91.60
2018-06-08T20:11:35.537Z,92.10
2018-06-08T20:14:04.408Z,91.80
2018-06-08T20:16:33.302Z,91.90
2018-06-08T20:19:02.158Z,92.10
2018-06-08T20:21:31.277Z,92.10
2018-06-08T20:24:00.208Z,92.00
2018-06-08T20:26:29.268Z,91.90
2018-06-08T20:28:58.434Z,91.80
2018-06-08T20:31:27.348Z,92.10
2018-06-08T20:33:56.288Z,92.00
2018-06-08T20:36:25.180Z,91.90
2018-06-08T20:38:54.129Z,91.80
2018-06-08T20:41:23.509Z,91.70
2018-06-08T20:43:53.127Z,91.20
2018-06-08T20:46:22.126Z,91.00
2018-06-08T20:48:51.010Z,90.90
2018-06-08T20:51:22.973Z,90.70
2018-06-08T20:53:53.295Z,90.70
2018-06-08T20:56:22.164Z,90.90
2018-06-08T20:58:51.180Z,91.00
2018-06-08T21:01:20.083Z,91.00
2018-06-08T21:03:58.010Z,90.80
2018-06-08T21:06:47.280Z,90.80
2018-06-08T21:09:41.544Z,90.70
2018-06-08T21:12:21.371Z,90.80
2018-06-08T21:17:55.723Z,90.50
2018-06-08T21:20:25.791Z,90.40
2018-06-08T21:22:55.198Z,90.60
2018-06-08T21:25:24.120Z,90.80
2018-06-08T21:30:22.567Z,90.60
2018-06-08T21:32:51.458Z,91.50
2018-06-08T21:35:21.212Z,91.40
2018-06-08T21:40:18.572Z,92.00
2018-06-08T21:42:47.480Z,91.90
2018-06-08T21:45:16.424Z,92.30
2018-06-08T21:47:45.272Z,92.00
2018-06-08T21:50:14.251Z,91.80
2018-06-08T21:52:43.548Z,89.10
2018-06-08T21:55:12.685Z,90.00
2018-06-08T21:57:41.575Z,90.40
2018-06-08T22:00:10.445Z,90.70
2018-06-08T22:02:39.598Z,90.50
2018-06-08T22:05:08.467Z,90.40
2018-06-08T22:07:37.440Z,90.50
2018-06-08T22:10:06.272Z,90.60
2018-06-08T22:12:35.209Z,90.50
2018-06-08T22:15:04.052Z,90.40
2018-06-08T22:17:32.944Z,90.50
2018-06-08T22:20:01.833Z,90.40
2018-06-08T22:22:30.676Z,90.50
2018-06-08T22:25:00.127Z,90.60
2018-06-08T22:27:29.012Z,90.90
2018-06-08T22:29:57.916Z,91.30
2018-06-08T22:32:26.837Z,91.50
2018-06-08T22:34:55.743Z,91.50
2018-06-08T22:37:24.647Z,91.40
2018-06-08T22:39:53.599Z,91.40
2018-06-08T22:42:22.496Z,91.90
2018-06-08T22:44:51.356Z,91.30
2018-06-08T22:47:20.256Z,91.20
2018-06-08T22:49:49.129Z,91.20
2018-06-08T22:52:18.069Z,91.20
2018-06-08T22:54:47.770Z,91.20
2018-06-08T22:57:16.641Z,90.90
2018-06-08T22:59:45.536Z,90.90
2018-06-08T23:02:14.436Z,90.60
2018-06-08T23:04:43.339Z,90.50
2018-06-08T23:07:12.204Z,90.80
2018-06-08T23:09:41.186Z,90.90
2018-06-08T23:12:10.108Z,91.40
2018-06-08T23:14:39.896Z,91.30
2018-06-08T23:17:08.767Z,91.70
2018-06-08T23:19:37.694Z,91.80
2018-06-08T23:22:06.626Z,91.70
2018-06-08T23:24:35.500Z,91.90
2018-06-08T23:27:04.338Z,92.20
2018-06-08T23:29:33.231Z,92.30
2018-06-08T23:32:02.168Z,92.60
2018-06-08T23:36:59.584Z,92.80
2018-06-08T23:39:28.456Z,93.20
2018-06-08T23:41:57.300Z,93.20
2018-06-08T23:44:26.400Z,92.90
2018-06-08T23:46:55.279Z,92.90
2018-06-08T23:51:52.663Z,92.90
2018-06-08T23:54:21.516Z,93.00
2018-06-08T23:56:50.410Z,92.30
2018-06-08T23:59:19.251Z,92.60
